Latest Coastal Weather Observations for Cape Bruny AWS

IDT60701

Issued at 9:22 pm EDT Monday 5 December 2016 (issued every 10 minutes, with the page automatically refreshed every 10 minutes)

About coastal observations | Map of coastal stations | Coastal observations for TAS | Marine services | Other Formats
Station Details ID: 094198 Name: CAPE BRUNY (CAPE BRUNY) Lat: -43.49 Lon: 147.14 Height: 59.7 m
Data from the previous 72 hours. | See also: Recent months at Cape Bruny AWS
Date/Time
EDT
Temp
°C
Wind Pressure Rain since
9am
mm
Weather Cloud Vis
km
Sea
Height
m
Swell
Dir  Spd
kts
Gust
kts
hPa Trend Height
m
Period
s
Dir
05/09:00pm 11.9 W 14 22 1011.2 - 0.0 - - - - - - -
05/08:30pm 12.0 WSW 13 19 1011.0 - 0.0 - - - - - - -
05/08:00pm 12.6 W 18 21 1010.2 - 0.0 - - - - - - -
05/07:30pm 14.0 W 24 29 1009.7 - 0.0 - - - - - - -
05/07:00pm 14.5 W 23 29 1009.4 - 0.0 - - - - - - -
05/06:30pm 15.3 W 17 24 1008.9 - 0.0 - - - - - - -
05/06:05pm 15.5 W 21 31 1008.3 - 0.0 - - - - - - -
05/06:00pm 15.3 W 18 26 1008.5 - 0.0 - - - - - - -
05/05:30pm 16.0 WNW 21 28 1008.1 - 0.0 - - - - - - -
05/05:00pm 16.2 WNW 23 29 1007.8 - 0.0 - - - - - - -
05/04:30pm 16.0 WNW 24 32 1007.7 - 0.0 - - - - - - -
05/04:27pm 16.0 WNW 23 32 1007.6 - 0.0 - - - - - - -
05/04:00pm 15.6 W 17 21 1007.6 - 0.0 - - - - - - -
05/03:30pm 14.0 WSW 21 26 1007.2 - 0.0 - - - - - - -
05/03:00pm 14.2 W 20 30 1006.9 - 0.0 - - - - - - -
05/02:30pm 15.5 W 21 35 1006.3 - 0.0 - - - - - - -
05/02:17pm 15.6 W 23 33 1006.3 - 0.0 - - - - - - -
05/02:00pm 17.0 W 23 30 1005.9 - 0.0 - - - - - - -
05/01:51pm 16.3 W 21 31 1006.0 - 0.0 - - - - - - -
05/01:30pm 16.2 W 20 26 1005.7 - 0.0 - - - - - - -
05/01:23pm 15.0 W 19 29 1005.6 - 0.0 - - - - - - -
05/01:00pm 16.1 W 23 28 1005.0 - 0.0 - - - - - - -
05/12:30pm 14.8 WSW 24 30 1004.5 - 0.0 - - - - - - -
05/12:00pm 14.7 WSW 24 31 1003.8 - 0.0 - - - - - - -
05/11:30am 14.7 WSW 25 31 1003.2 - 0.0 - - - - - - -
05/11:06am 14.6 WSW 16 26 1002.7 - 0.0 - - - - - - -
05/11:00am 14.3 WSW 18 26 1002.7 - 0.0 - - - - - - -
05/10:47am 14.9 WSW 15 25 1002.3 - 0.0 - - - - - - -
05/10:36am 16.6 W 19 26 1002.3 - 0.0 - - - - - - -
05/10:30am 17.3 WNW 21 27 1001.9 - 0.0 - - - - - - -
05/10:00am 15.9 WNW 20 31 1001.6 - 0.0 - - - - - - -
05/09:30am 16.2 WNW 25 35 1000.7 - 0.0 - - - - - - -
05/09:00am 15.8 WNW 29 45 999.9 - 2.4 - - - - - - -
05/08:33am 15.1 WNW 26 40 999.5 - 2.4 - - - - - - -
05/08:30am 15.4 WNW 27 36 999.6 - 2.4 - - - - - - -
05/08:07am 14.9 WNW 23 34 999.2 - 2.4 - - - - - - -
05/08:00am 14.9 WNW 23 30 999.2 - 2.4 - - - - - - -
05/07:30am 14.5 NW 21 31 999.1 - 2.4 - - - - - - -
05/07:00am 13.9 WNW 25 36 998.5 - 2.4 - - - - - - -
05/06:30am 14.2 WNW 31 42 996.8 - 2.4 - - - - - - -
05/06:01am 14.8 WNW 31 43 996.1 - 2.4 - - - - - - -
05/06:00am 14.7 WNW 31 39 996.1 - 2.4 - - - - - - -
05/05:30am 15.0 W 30 43 995.6 - 2.4 - - - - - - -
05/05:12am 15.6 W 32 43 995.2 - 2.4 - - - - - - -
05/05:08am 15.5 W 30 39 995.0 - 2.4 - - - - - - -
05/05:00am 15.4 W 23 35 994.9 - 2.4 - - - - - - -
05/04:38am 16.3 W 19 32 994.3 - 2.4 - - - - - - -
05/04:30am 16.5 WNW 13 19 994.2 - 2.4 - - - - - - -
05/04:00am 16.4 NNW 11 15 993.2 - 2.4 - - - - - - -
05/03:30am 16.1 N 7 11 992.8 - 2.2 - - - - - - -
05/03:00am 16.0 N 9 14 992.6 - 1.6 Recent precip. - - - - - -
05/02:30am 17.1 NNW 10 14 993.8 - 0.6 - - - - - - -
05/02:00am 20.2 N 11 19 992.6 - 0.0 - - - - - - -
05/01:30am 20.1 NNW 8 14 993.5 - 0.0 - - - - - - -
05/01:00am 20.0 N 13 23 993.9 - 0.0 - - - - - - -
05/12:30am 20.2 NNW 13 21 994.8 - 0.0 - - - - - - -
05/12:00am 20.9 N 13 24 996.1 - 0.0 - - - - - - -
 
Date/Time
EDT
Temp
°C
Wind Pressure Rain since
9am
mm
Weather Cloud Vis
km
Sea
Height
m
Swell
Dir  Spd
kts
Gust
kts
hPa Trend Height
m
Period
s
Dir
04/11:30pm 19.8 NNE 7 11 996.8 - 0.0 - - - - - - -
04/11:00pm 20.0 NNE 8 13 997.3 - 0.0 - - - - - - -
04/10:30pm 20.5 NNE 11 15 998.0 - 0.0 - - - - - - -
04/10:00pm 20.5 NNE 11 17 998.4 - 0.0 - - - - - - -
04/09:30pm 20.5 NNE 14 20 998.9 - 0.0 - - - - - - -
04/09:00pm 20.9 NNE 13 23 998.9 - 0.0 - - - - - - -
04/08:30pm 20.8 NNE 13 20 999.5 - 0.0 - - - - - - -
04/08:00pm 20.7 NNE 12 19 999.9 - 0.0 - - - - - - -
04/07:30pm 20.0 NE 8 11 1000.3 - 0.0 - - - - - - -
04/07:00pm 19.5 NE 6 9 1000.8 - 0.0 - - - - - - -
04/06:30pm 18.9 NE 5 8 1001.5 - 0.0 - - - - - - -
04/06:00pm 17.9 W 4 5 1002.0 - 0.0 - - - - - - -
04/05:30pm 18.2 W 5 6 1002.7 - 0.0 - - - - - - -
04/05:00pm 18.6 W 6 8 1003.5 - 0.0 - - - - - - -
04/04:30pm 18.7 W 6 8 1004.1 - 0.0 - - - - - - -
04/04:00pm 20.8 W 8 10 1004.7 - 0.0 - - - - - - -
04/03:30pm 22.2 WNW 7 9 1005.4 - 0.0 - - - - - - -
04/03:00pm 21.8 ESE 5 8 1006.1 - 0.0 - - - - - - -
04/02:30pm 20.8 SE 9 12 1006.7 - 0.0 - - - - - - -
04/02:00pm 19.3 SE 10 14 1007.4 - 0.0 - - - - - - -
04/01:30pm 19.0 SE 9 13 1008.2 - 0.0 - - - - - - -
04/01:00pm 19.2 SE 8 11 1008.8 - 0.0 - - - - - - -
04/12:30pm 18.6 S 6 8 1009.4 - 0.0 - - - - - - -
04/12:00pm 17.4 S 6 9 1010.0 - 0.0 - - - - - - -
04/11:30am 17.4 SE 10 13 1010.1 - 0.0 - - - - - - -
04/11:00am 16.2 ESE 9 11 1011.0 - 0.0 - - - - - - -
04/10:30am 15.5 ESE 8 11 1011.4 - 0.0 - - - - - - -
04/10:00am 15.2 SE 7 9 1011.5 - 0.0 - - - - - - -
04/09:30am 15.5 SSE 5 7 1012.0 - 0.0 - - - - - - -
04/09:00am 15.3 NE 4 7 1012.1 - 0.2 - - - - - - -
04/08:30am 14.1 NNE 7 9 1012.4 - 0.2 - - - - - - -
04/08:00am 12.8 N 8 10 1012.7 - 0.2 - - - - - - -
04/07:30am 11.8 NNE 8 11 1013.1 - 0.2 - - - - - - -
04/07:00am 10.9 N 7 9 1013.3 - 0.2 - - - - - - -
04/06:30am 10.2 N 9 11 1012.9 - 0.2 - - - - - - -
04/06:00am 9.5 N 3 6 1012.5 - 0.2 - - - - - - -
04/05:30am 9.4 N 8 9 1012.5 - 0.2 - - - - - - -
04/05:00am 9.5 N 9 11 1012.6 - 0.2 - - - - - - -
04/04:30am 9.7 N 8 10 1012.9 - 0.2 - - - - - - -
04/04:00am 9.0 N 6 7 1013.0 - 0.2 - - - - - - -
04/03:30am 9.0 NNW 6 7 1013.4 - 0.2 - - - - - - -
04/03:00am 9.3 NNW 4 5 1013.7 - 0.2 - - - - - - -
04/02:30am 9.3 WNW 4 6 1014.0 - 0.2 - - - - - - -
04/02:00am 9.7 WNW 3 5 1014.4 - 0.2 - - - - - - -
04/01:30am 10.1 CALM 0 0 1014.6 - 0.2 - - - - - - -
04/01:00am 10.0 NW 3 6 1014.8 - 0.2 - - - - - - -
04/12:30am 9.7 N 5 6 1015.0 - 0.2 - - - - - - -
04/12:00am 9.6 N 4 6 1015.1 - 0.2 - - - - - - -
 
Date/Time
EDT
Temp
°C
Wind Pressure Rain since
9am
mm
Weather Cloud Vis
km
Sea
Height
m
Swell
Dir  Spd
kts
Gust
kts
hPa Trend Height
m
Period
s
Dir
03/11:30pm 10.5 NNW 5 6 1015.0 - 0.2 - - - - - - -
03/11:00pm 10.9 NE 3 5 1015.1 - 0.2 - - - - - - -
03/10:30pm 10.8 NE 4 4 1015.2 - 0.2 - - - - - - -
03/10:00pm 11.3 NE 1 3 1015.2 - 0.2 - - - - - - -
03/09:30pm 11.1 ENE 5 6 1015.1 - 0.2 - - - - - - -
03/09:00pm 11.6 ENE 6 8 1014.8 - 0.2 - - - - - - -
03/08:30pm 12.3 E 11 15 1014.4 - 0.2 - - - - - - -
03/08:00pm 12.7 ESE 11 13 1014.4 - 0.2 - - - - - - -
03/07:30pm 12.7 ESE 11 14 1014.2 - 0.2 - - - - - - -
03/07:00pm 13.4 ESE 9 12 1013.9 - 0.2 - - - - - - -
03/06:30pm 13.9 SE 5 8 1013.8 - 0.2 - - - - - - -
03/06:00pm 13.3 SSW 6 10 1013.5 - 0.2 - - - - - - -
03/05:30pm 14.2 SSW 9 12 1013.5 - 0.2 - - - - - - -
03/05:00pm 14.1 SW 9 14 1013.6 - 0.2 - - - - - - -
03/04:30pm 15.1 SSW 8 15 1013.7 - 0.2 - - - - - - -
03/04:00pm 15.7 SSW 8 12 1013.5 - 0.2 - - - - - - -
03/03:30pm 14.8 SSW 7 11 1013.5 - 0.2 - - - - - - -
03/03:00pm 14.0 SSW 6 10 1013.7 - 0.2 - - - - - - -
03/02:30pm 14.8 S 7 10 1013.5 - 0.2 - - - - - - -
03/02:00pm 15.5 WNW 4 8 1013.4 - 0.2 - - - - - - -
03/01:30pm 14.4 WSW 6 8 1013.5 - 0.2 - - - - - - -
03/01:00pm 13.7 WSW 11 14 1013.4 - 0.2 - - - - - - -
03/12:30pm 13.3 SW 9 13 1013.3 - 0.2 - - - - - - -
03/12:00pm 12.9 SSW 11 14 1013.2 - 0.0 - - - - - - -
03/11:30am 15.7 W 9 12 1013.2 - 0.0 - - - - - - -
03/11:00am 15.8 WNW 13 16 1013.1 - 0.0 - - - - - - -
03/10:30am 14.2 WNW 17 21 1012.9 - 0.0 - - - - - - -
03/10:00am 14.1 WNW 13 18 1012.9 - 0.0 - - - - - - -
03/09:30am 12.7 WNW 11 16 1012.8 - 0.0 - - - - - - -
03/09:00am 13.1 WNW 14 17 1012.8 - 0.2 - - - - - - -
03/08:30am 12.2 WNW 16 19 1012.9 - 0.2 - - - - - - -
03/08:00am 11.9 WNW 14 18 1012.6 - 0.2 - - - - - - -
03/07:30am 11.9 NW 11 15 1012.5 - 0.2 - - - - - - -
03/07:00am 11.4 NW 15 20 1012.2 - 0.2 - - - - - - -
03/06:30am 10.7 NW 13 16 1011.9 - 0.2 - - - - - - -
03/06:00am 10.4 WNW 15 19 1011.4 - 0.2 - - - - - - -
03/05:59am 10.3 WNW 15 19 1011.4 - 0.2 - - - - - - -
03/05:30am 10.0 NW 6 8 1011.2 - 0.2 - - - - - - -
03/05:00am 10.3 WNW 19 25 1010.7 - 0.2 - - - - - - -
03/04:30am 10.7 WNW 13 18 1010.5 - 0.2 - - - - - - -
03/04:00am 10.5 NW 17 22 1010.1 - 0.2 - - - - - - -
03/03:30am 10.4 NW 12 17 1010.1 - 0.2 - - - - - - -
03/03:00am 10.2 WNW 11 15 1010.3 - 0.2 - - - - - - -
03/02:30am 10.3 WNW 9 14 1010.4 - 0.2 - - - - - - -
03/02:00am 10.9 NW 15 20 1010.2 - 0.2 - - - - - - -
03/01:30am 9.6 N 7 11 1010.1 - 0.2 - - - - - - -
03/01:00am 10.5 WNW 17 24 1010.0 - 0.2 - - - - - - -
03/12:30am 10.5 NW 17 23 1009.9 - 0.2 - - - - - - -
03/12:00am 11.0 NW 12 18 1010.3 - 0.2 - - - - - - -
 
Date/Time
EDT
Temp
°C
Wind Pressure Rain since
9am
mm
Weather Cloud Vis
km
Sea
Height
m
Swell
Dir  Spd
kts
Gust
kts
hPa Trend Height
m
Period
s
Dir
02/11:30pm 11.4 WNW 13 20 1009.8 - 0.2 - - - - - - -
02/11:00pm 11.4 WNW 21 30 1009.6 - 0.2 - - - - - - -
02/10:59pm 11.3 WNW 22 32 1009.6 - 0.2 - - - - - - -
02/10:50pm 11.4 W 23 32 1009.8 - 0.2 - - - - - - -
02/10:30pm 11.8 W 19 22 1009.8 - 0.2 - - - - - - -
02/10:00pm 12.0 WNW 21 24 1009.7 - 0.2 - - - - - - -
02/09:37pm 12.5 WNW 22 32 1009.5 - 0.2 - - - - - - -
02/09:30pm 12.6 WNW 17 23 1009.4 - 0.2 - - - - - - -

Other Formats:

Comma delimited format used in spreadsheet applications
http://www.bom.gov.au/fwo/IDT60701/IDT60701.95967.axf

JavaScript Object Notation format (JSON) in row-major order
http://www.bom.gov.au/fwo/IDT60701/IDT60701.95967.json